createdAt,value
2022-10-04T00:03:12.035Z,97455.28
2022-10-04T03:24:29.191Z,97307.44
2022-10-04T03:26:58.752Z,97295.31
2022-10-04T03:29:30.202Z,97293.97
2022-10-04T03:32:01.527Z,97293.69
2022-10-04T03:34:34.788Z,97292.44
2022-10-04T03:37:03.933Z,97301.72
2022-10-04T03:39:36.643Z,97297.09
2022-10-04T03:42:05.940Z,97294.94
2022-10-04T03:44:33.776Z,97290.31
2022-10-04T03:47:02.242Z,97293.06
2022-10-04T03:49:34.610Z,97294.41
2022-10-04T03:52:03.773Z,97295.31
2022-10-04T03:54:34.222Z,97311.28
2022-10-04T03:57:03.098Z,97311.56
2022-10-04T03:59:30.952Z,97320.91
2022-10-04T04:02:07.503Z,97319.50
2022-10-04T04:04:44.182Z,97323.03
2022-10-04T04:07:18.828Z,97318.09
2022-10-04T04:09:52.820Z,97338.78
2022-10-04T04:12:25.477Z,97337.88
2022-10-04T04:14:54.076Z,97327.66
2022-10-04T04:17:36.850Z,97316.81
2022-10-04T04:20:08.196Z,97307.63
2022-10-04T04:22:37.747Z,97314.22
2022-10-04T04:25:12.494Z,97314.38
2022-10-04T04:27:42.889Z,97312.56
2022-10-04T04:30:17.758Z,97318.59
2022-10-04T04:32:49.475Z,97317.63
2022-10-04T04:35:26.304Z,97323.38
2022-10-04T04:38:05.396Z,97324.41
2022-10-04T04:40:34.547Z,97317.97
2022-10-04T04:43:03.833Z,97310.97
2022-10-04T04:45:34.196Z,97310.69
2022-10-04T04:48:03.904Z,97307.13
2022-10-04T04:50:35.438Z,97303.72
2022-10-04T04:53:08.005Z,97306.81
2022-10-04T04:56:02.246Z,97309.59
2022-10-04T04:58:33.039Z,97299.69
2022-10-04T05:01:03.818Z,97302.84
2022-10-04T05:03:33.122Z,97309.19
2022-10-04T05:06:02.915Z,97312.88
2022-10-04T05:08:31.721Z,97318.44
2022-10-04T05:11:07.889Z,97304.97
2022-10-04T05:13:41.115Z,97304.41
2022-10-04T05:16:14.118Z,97306.84
2022-10-04T05:18:41.793Z,97308.25
2022-10-04T05:21:16.053Z,97312.78
2022-10-04T05:23:43.724Z,97300.59
2022-10-04T05:26:15.087Z,97297.72
2022-10-04T05:28:42.881Z,97304.25
2022-10-04T05:31:28.263Z,97303.81
2022-10-04T05:33:58.448Z,97306.25
2022-10-04T05:36:52.226Z,97300.75
2022-10-04T05:39:26.189Z,97299.78
2022-10-04T05:42:02.757Z,97303.72
2022-10-04T05:44:32.592Z,97298.22
2022-10-04T05:47:01.863Z,97300.41
2022-10-04T05:49:34.859Z,97296.69
2022-10-04T05:52:04.884Z,97295.69
2022-10-04T05:54:35.710Z,97292.97
2022-10-04T05:57:24.480Z,97300.28
2022-10-04T06:00:09.544Z,97308.63
2022-10-04T06:03:10.783Z,97308.38
2022-10-04T06:05:49.727Z,97310.22
2022-10-04T06:08:28.877Z,97315.78
2022-10-04T06:11:06.310Z,97312.56
2022-10-04T06:13:52.681Z,97320.25
2022-10-04T06:16:29.833Z,97320.47
2022-10-04T06:19:26.581Z,97321.63
2022-10-04T06:22:06.529Z,97325.72
2022-10-04T06:24:38.244Z,97334.84
2022-10-04T06:27:14.010Z,97341.53
2022-10-04T06:29:47.164Z,97348.88
2022-10-04T06:32:46.205Z,97351.53
2022-10-04T06:35:30.615Z,97348.97
2022-10-04T06:38:44.525Z,97343.78
2022-10-04T06:41:59.416Z,97332.75
2022-10-04T06:44:41.393Z,97335.53
2022-10-04T06:47:29.576Z,97332.44
2022-10-04T06:50:07.811Z,97338.50
2022-10-04T06:52:54.774Z,97334.91
2022-10-04T06:55:47.065Z,97343.38
2022-10-04T06:58:41.854Z,97336.22
2022-10-04T07:01:23.307Z,97343.06
2022-10-04T07:03:58.408Z,97337.56
2022-10-04T07:06:31.758Z,97344.88
2022-10-04T07:09:05.422Z,97339.06
2022-10-04T07:11:43.944Z,97347.19
2022-10-04T07:14:17.521Z,97360.25
2022-10-04T07:16:49.535Z,97356.03
2022-10-04T07:19:35.443Z,97364.84
2022-10-04T07:22:15.205Z,97364.84
2022-10-04T07:24:58.004Z,97370.94
2022-10-04T07:27:29.915Z,97370.13
2022-10-04T07:29:58.969Z,97372.72
2022-10-04T07:32:29.756Z,97367.53
2022-10-04T07:35:05.965Z,97373.72
2022-10-04T07:37:38.126Z,97376.03
2022-10-04T07:40:10.585Z,97369.16
2022-10-04T07:42:47.823Z,97369.81
2022-10-04T07:45:20.925Z,97364.25
2022-10-04T07:47:48.897Z,97361.47
2022-10-04T07:50:32.145Z,97362.91
2022-10-04T07:53:07.133Z,97369.94
2022-10-04T07:55:50.741Z,97369.41
2022-10-04T07:58:30.154Z,97364.16
2022-10-04T08:01:01.941Z,97358.09
2022-10-04T08:03:49.121Z,97356.44
2022-10-04T08:06:26.080Z,97360.19
2022-10-04T08:09:09.840Z,97370.75
2022-10-04T08:11:45.739Z,97368.94
2022-10-04T08:14:27.492Z,97362.19
2022-10-04T08:17:11.820Z,97369.56
2022-10-04T08:19:50.612Z,97365.63
2022-10-04T08:22:34.035Z,97363.66
2022-10-04T08:25:11.127Z,97369.34
2022-10-04T08:28:05.266Z,97369.19
2022-10-04T08:30:49.031Z,97366.56
2022-10-04T08:33:29.923Z,97363.78
2022-10-04T08:36:12.000Z,97352.19
2022-10-04T08:38:48.768Z,97351.19
2022-10-04T08:41:55.031Z,97351.47
2022-10-04T08:44:56.790Z,97356.00
2022-10-04T08:47:54.502Z,97348.47
2022-10-04T08:50:39.592Z,97353.81
2022-10-04T08:53:35.455Z,97359.34
2022-10-04T08:56:22.393Z,97358.81
2022-10-04T08:59:28.333Z,97350.59
2022-10-04T09:02:31.561Z,97353.53
2022-10-04T09:05:16.651Z,97357.34
2022-10-04T09:08:17.938Z,97356.44
2022-10-04T09:11:08.329Z,97347.97
2022-10-04T09:13:55.177Z,97352.16
2022-10-04T09:16:30.118Z,97355.00
2022-10-04T09:19:20.315Z,97361.03
2022-10-04T09:22:10.452Z,97359.47
2022-10-04T09:25:20.030Z,97362.97
2022-10-04T09:28:21.785Z,97361.31
2022-10-04T09:31:23.290Z,97365.34
2022-10-04T09:34:27.356Z,97361.84
2022-10-04T09:37:26.826Z,97353.50
2022-10-04T09:40:47.115Z,97354.63
2022-10-04T09:43:57.000Z,97370.59
2022-10-04T09:47:15.007Z,97367.47
2022-10-04T09:50:14.603Z,97371.09
2022-10-04T09:53:10.079Z,97367.06
2022-10-04T09:56:13.221Z,97369.47
2022-10-04T09:59:30.877Z,97367.66
2022-10-04T10:02:37.061Z,97366.81
2022-10-04T10:05:42.702Z,97363.72
2022-10-04T10:17:45.581Z,97374.22
2022-10-04T10:20:34.474Z,97365.34
2022-10-04T10:23:37.570Z,97366.03
2022-10-04T10:26:36.892Z,97369.72
2022-10-04T10:29:41.053Z,97371.00
2022-10-04T10:43:27.122Z,97371.13
2022-10-04T10:46:15.567Z,97364.88
2022-10-04T11:26:23.730Z,97319.59
2022-10-04T13:20:30.414Z,97226.47
2022-10-04T13:23:03.652Z,97233.88
2022-10-04T13:25:55.374Z,97234.09
2022-10-04T13:34:22.668Z,97237.28
2022-10-04T13:41:18.042Z,97241.22
2022-10-04T13:48:07.250Z,97243.44
2022-10-04T13:51:20.648Z,97244.38
2022-10-04T13:54:39.480Z,97249.00
2022-10-04T13:57:55.055Z,97238.88
2022-10-04T14:17:27.180Z,97247.59
2022-10-04T14:20:38.774Z,97247.94
2022-10-04T14:23:49.420Z,97243.53
2022-10-04T14:29:46.147Z,97237.56
2022-10-04T14:32:47.324Z,97234.31
2022-10-04T14:48:14.316Z,97228.69
2022-10-04T14:52:06.091Z,97229.63
2022-10-04T14:55:12.222Z,97228.56
2022-10-04T14:58:28.357Z,97221.72
2022-10-04T15:29:41.714Z,97218.50
2022-10-04T15:32:25.284Z,97207.97
2022-10-04T15:35:06.736Z,97212.09
2022-10-04T15:37:44.012Z,97213.56
2022-10-04T15:40:25.699Z,97211.19
2022-10-04T15:43:07.386Z,97207.78
2022-10-04T15:46:06.995Z,97207.63
2022-10-04T15:48:55.711Z,97204.84
2022-10-04T15:51:42.463Z,97201.44
2022-10-04T15:54:19.942Z,97210.66
2022-10-04T15:56:53.278Z,97214.19
2022-10-04T15:59:33.463Z,97203.69
2022-10-04T16:02:22.217Z,97201.69
2022-10-04T16:05:03.277Z,97202.53
2022-10-04T16:08:14.880Z,97197.31
2022-10-04T16:11:14.983Z,97198.59
2022-10-04T16:14:43.487Z,97198.63
2022-10-04T16:17:41.231Z,97206.59
2022-10-04T16:20:50.911Z,97211.91
2022-10-04T16:23:31.584Z,97211.34
2022-10-04T16:26:01.158Z,97204.91
2022-10-04T16:28:53.315Z,97213.09
2022-10-04T16:31:28.080Z,97210.25
2022-10-04T16:34:02.398Z,97206.03
2022-10-04T16:36:45.991Z,97205.47
2022-10-04T16:39:48.993Z,97202.63
2022-10-04T16:42:18.684Z,97196.59
2022-10-04T16:44:51.812Z,97198.66
2022-10-04T16:47:26.467Z,97199.47
2022-10-04T16:49:57.177Z,97199.09
2022-10-04T16:52:48.053Z,97201.53
2022-10-04T16:55:44.277Z,97202.78
2022-10-04T16:58:41.279Z,97203.59
2022-10-04T17:02:00.161Z,97207.66
2022-10-04T17:05:18.280Z,97199.16
2022-10-04T17:08:05.319Z,97196.53
2022-10-04T17:10:41.177Z,97196.78
2022-10-04T17:13:23.350Z,97196.38
2022-10-04T17:16:01.972Z,97203.25
2022-10-04T17:18:38.742Z,97203.84
2022-10-04T17:21:24.168Z,97208.50
2022-10-04T17:24:14.430Z,97207.91
2022-10-04T17:27:00.827Z,97209.53
2022-10-04T17:29:46.806Z,97218.25
2022-10-04T17:32:24.596Z,97215.41
2022-10-04T17:35:09.872Z,97215.19
2022-10-04T17:37:47.111Z,97217.81
2022-10-04T17:40:30.303Z,97225.06
2022-10-04T17:43:06.935Z,97232.97
2022-10-04T17:46:09.811Z,97229.94
2022-10-04T17:49:03.214Z,97224.63
2022-10-04T17:51:57.496Z,97221.38
2022-10-04T17:54:47.375Z,97220.13
2022-10-04T17:57:22.709Z,97223.28
2022-10-04T17:59:55.986Z,97221.22
2022-10-04T18:02:30.276Z,97216.75
2022-10-04T18:05:01.559Z,97212.91
2022-10-04T18:07:38.039Z,97216.94
2022-10-04T18:10:24.633Z,97221.94
2022-10-04T18:12:59.883Z,97199.72
2022-10-04T18:15:33.062Z,97209.00
2022-10-04T18:18:16.302Z,97198.84
2022-10-04T18:21:05.212Z,97205.50
2022-10-04T18:23:36.853Z,97198.00
2022-10-04T18:26:12.582Z,97194.78
2022-10-04T18:28:40.977Z,97195.34
2022-10-04T19:18:57.228Z,97243.66
2022-10-04T19:21:31.727Z,97235.53
2022-10-04T19:24:23.690Z,97235.53
2022-10-04T19:26:58.302Z,97235.91
2022-10-04T19:29:38.596Z,97232.66
2022-10-04T19:32:12.603Z,97244.50
2022-10-04T19:34:54.079Z,97252.59
2022-10-04T19:37:26.790Z,97252.75
2022-10-04T19:39:59.005Z,97250.16
2022-10-04T19:42:36.364Z,97249.06
2022-10-04T19:45:19.673Z,97250.44
2022-10-04T19:47:51.720Z,97246.38
2022-10-04T19:50:24.043Z,97242.78
2022-10-04T19:52:57.832Z,97246.38
2022-10-04T19:55:38.203Z,97244.13
2022-10-04T19:58:18.278Z,97248.75
2022-10-04T20:00:46.663Z,97248.31
2022-10-04T20:03:14.927Z,97248.50
2022-10-04T20:05:49.040Z,97254.72
2022-10-04T20:08:37.797Z,97252.91
2022-10-04T20:11:19.031Z,97256.38
2022-10-04T20:13:47.366Z,97253.94
2022-10-04T20:16:16.091Z,97259.34
2022-10-04T20:19:16.034Z,97256.53
2022-10-04T20:21:45.527Z,97259.34
2022-10-04T20:24:17.883Z,97251.47
2022-10-04T20:27:00.356Z,97252.66
2022-10-04T20:30:05.473Z,97262.53
2022-10-04T20:32:56.147Z,97255.84
2022-10-04T20:36:08.506Z,97252.97
2022-10-04T20:39:03.073Z,97261.19
2022-10-04T20:42:01.697Z,97266.19
2022-10-04T20:44:44.592Z,97270.63
2022-10-04T20:47:29.944Z,97275.00
2022-10-04T20:49:58.773Z,97282.25
2022-10-04T20:52:28.962Z,97285.41
2022-10-04T20:55:00.200Z,97272.53
2022-10-04T20:57:30.689Z,97275.31
2022-10-04T20:59:59.666Z,97286.13
2022-10-04T21:02:29.083Z,97292.38
2022-10-04T21:05:13.767Z,97298.25
2022-10-04T21:07:42.287Z,97297.47
2022-10-04T21:10:20.577Z,97295.81
2022-10-04T21:12:50.113Z,97296.78
2022-10-04T21:15:23.521Z,97296.97
2022-10-04T21:18:03.319Z,97304.81
2022-10-04T21:20:47.441Z,97304.03
2022-10-04T21:23:23.635Z,97302.38
